Time;durP1;ratioP1;P1;durP2;ratioP2;P2;SDS_P1;SDS_P2;PMS_P1;PMS_P2;Temp;Humidity;BMP_temperature;BMP_pressure;BME280_temperature;BME280_humidity;BME280_pressure;Samples;Min_cycle;Max_cycle;Signal;HPM_P1;HPM_P2
2023/09/17 00:01:08;;;;;;;16.35;13.82;;;17.30;99.90;;;;;;5016755;28;20396;-56
2023/09/17 00:03:35;;;;;;;16.60;13.18;;;17.30;99.90;;;;;;5017013;28;20408;-57
2023/09/17 00:06:03;;;;;;;16.95;13.80;;;17.30;99.90;;;;;;5017099;28;20451;-52
2023/09/17 00:08:30;;;;;;;17.67;13.80;;;17.30;99.90;;;;;;5016505;28;20050;-54
2023/09/17 00:10:57;;;;;;;18.88;13.60;;;17.30;99.90;;;;;;5016694;28;20037;-55
2023/09/17 00:13:24;;;;;;;20.67;13.85;;;17.30;99.90;;;;;;5016538;28;20492;-56
2023/09/17 00:15:52;;;;;;;18.63;13.68;;;17.30;99.90;;;;;;5016414;28;20048;-57
2023/09/17 00:18:18;;;;;;;22.98;14.75;;;17.30;99.90;;;;;;5016461;28;20113;-58
2023/09/17 00:20:45;;;;;;;22.30;14.68;;;17.30;99.90;;;;;;5016367;28;20092;-52
2023/09/17 00:23:12;;;;;;;22.70;13.70;;;17.30;99.90;;;;;;5016322;28;20029;-56
2023/09/17 00:25:40;;;;;;;19.73;15.27;;;17.30;99.90;;;;;;5016547;28;20046;-57
2023/09/17 00:28:07;;;;;;;21.88;14.88;;;17.30;99.90;;;;;;5016260;28;20068;-57
2023/09/17 00:30:34;;;;;;;22.33;15.73;;;17.40;99.90;;;;;;5014986;28;20133;-58
2023/09/17 00:33:01;;;;;;;23.52;16.17;;;17.40;99.90;;;;;;5016385;28;20390;-56
2023/09/17 00:35:28;;;;;;;23.55;16.23;;;17.40;99.90;;;;;;5016378;28;20045;-56
2023/09/17 00:37:54;;;;;;;23.00;16.13;;;17.40;99.90;;;;;;5015897;28;20060;-58
2023/09/17 00:40:23;;;;;;;24.35;17.17;;;17.40;99.90;;;;;;5016383;28;20144;-58
2023/09/17 00:42:50;;;;;;;26.73;17.98;;;17.40;99.90;;;;;;5014864;28;20045;-47
2023/09/17 00:45:17;;;;;;;24.45;16.70;;;17.40;99.90;;;;;;5016311;28;20100;-56
2023/09/17 00:47:43;;;;;;;22.85;17.85;;;17.40;99.90;;;;;;5015997;28;20042;-56
2023/09/17 00:50:10;;;;;;;24.25;18.20;;;17.40;99.90;;;;;;5014665;28;20129;-51
2023/09/17 00:52:38;;;;;;;22.50;16.77;;;17.40;99.90;;;;;;5016134;28;20041;-55
2023/09/17 00:55:06;;;;;;;23.27;16.75;;;17.40;99.90;;;;;;5014525;28;20108;-56
2023/09/17 00:57:32;;;;;;;26.45;18.00;;;17.50;99.90;;;;;;5014544;28;20034;-56
2023/09/17 00:59:59;;;;;;;24.42;18.13;;;17.50;99.90;;;;;;5015849;28;20076;-56
2023/09/17 01:02:27;;;;;;;26.25;18.67;;;17.60;99.90;;;;;;5015955;28;20041;-58
2023/09/17 01:04:54;;;;;;;29.00;17.67;;;17.50;99.90;;;;;;5014650;28;20081;-58
2023/09/17 01:07:21;;;;;;;27.42;19.83;;;17.50;99.90;;;;;;5014462;28;20477;-56
2023/09/17 01:09:48;;;;;;;26.75;18.95;;;17.50;99.90;;;;;;5015615;28;20042;-60
2023/09/17 01:12:16;;;;;;;24.27;18.23;;;17.50;99.90;;;;;;5014615;28;20058;-58
2023/09/17 01:14:44;;;;;;;30.48;19.70;;;17.50;99.90;;;;;;5014344;28;20042;-55
2023/09/17 01:17:11;;;;;;;32.00;20.02;;;17.50;99.90;;;;;;5015001;28;20092;-60
2023/09/17 01:19:38;;;;;;;28.80;19.65;;;17.50;99.90;;;;;;5015658;28;20492;-54
2023/09/17 01:22:06;;;;;;;33.42;21.65;;;17.50;99.90;;;;;;5014289;28;20040;-58
2023/09/17 01:24:36;;;;;;;28.00;20.88;;;17.60;99.90;;;;;;5015315;28;20034;-57
2023/09/17 01:27:03;;;;;;;31.88;22.08;;;17.60;99.90;;;;;;5013867;28;20042;-54
2023/09/17 01:29:30;;;;;;;30.23;21.10;;;17.60;99.90;;;;;;5013701;28;20049;-54
2023/09/17 01:31:58;;;;;;;29.05;21.55;;;17.60;99.90;;;;;;5013640;28;20046;-58
2023/09/17 01:34:25;;;;;;;29.08;20.25;;;17.60;99.90;;;;;;5014760;28;20064;-57
2023/09/17 01:36:55;;;;;;;32.70;21.90;;;17.60;99.90;;;;;;5013867;28;20038;-58
2023/09/17 01:39:22;;;;;;;34.90;23.20;;;17.60;99.90;;;;;;5014908;28;20042;-55
2023/09/17 01:41:49;;;;;;;36.10;22.23;;;17.60;99.90;;;;;;5013955;28;20042;-58
2023/09/17 01:44:16;;;;;;;33.65;21.65;;;17.60;99.90;;;;;;5013953;28;20334;-60
2023/09/17 01:46:43;;;;;;;31.60;21.17;;;17.60;99.90;;;;;;5014707;28;20038;-58
2023/09/17 01:49:10;;;;;;;35.47;23.65;;;17.60;99.90;;;;;;5013910;28;20497;-54
2023/09/17 01:51:37;;;;;;;36.25;23.17;;;17.50;99.90;;;;;;5014768;28;20053;-57
2023/09/17 01:54:03;;;;;;;36.97;23.63;;;17.50;99.90;;;;;;5014879;28;20038;-57
2023/09/17 01:56:30;;;;;;;32.58;23.38;;;17.50;99.90;;;;;;5014995;28;20048;-56
2023/09/17 01:58:57;;;;;;;34.83;23.30;;;17.50;99.90;;;;;;5013214;28;20080;-52
2023/09/17 02:01:24;;;;;;;34.92;24.80;;;17.50;99.90;;;;;;5013473;28;20193;-54
2023/09/17 02:03:51;;;;;;;38.35;25.45;;;17.50;99.90;;;;;;5013148;28;20117;-54
2023/09/17 02:06:18;;;;;;;41.75;24.88;;;17.50;99.90;;;;;;5014591;28;20038;-55
2023/09/17 02:08:45;;;;;;;36.30;25.17;;;17.50;99.90;;;;;;5014209;28;20112;-57
2023/09/17 02:11:13;;;;;;;39.13;23.38;;;17.40;99.90;;;;;;5013509;28;20049;-54
2023/09/17 02:13:40;;;;;;;38.03;24.55;;;17.50;99.90;;;;;;5014380;28;20046;-55
2023/09/17 02:16:07;;;;;;;39.88;23.23;;;17.50;99.90;;;;;;5013039;28;20489;-52
2023/09/17 02:18:35;;;;;;;36.60;22.88;;;17.60;99.90;;;;;;5012829;28;20044;-59
2023/09/17 02:21:02;;;;;;;36.70;23.08;;;17.60;99.90;;;;;;5014545;28;20046;-57
2023/09/17 02:23:28;;;;;;;34.35;22.35;;;17.70;99.90;;;;;;5013183;28;20541;-56
2023/09/17 02:25:56;;;;;;;39.70;23.80;;;17.70;99.90;;;;;;5014102;28;20038;-54
2023/09/17 02:28:24;;;;;;;33.40;22.52;;;17.80;99.90;;;;;;5014157;28;20042;-57
2023/09/17 02:30:51;;;;;;;31.88;21.80;;;17.80;99.90;;;;;;5012524;28;20416;-55
2023/09/17 02:33:18;;;;;;;30.55;20.75;;;17.90;99.90;;;;;;5012659;28;20045;-60
2023/09/17 02:35:44;;;;;;;33.33;20.73;;;17.80;99.90;;;;;;5013905;28;20125;-56
2023/09/17 02:38:11;;;;;;;31.70;21.48;;;17.90;99.90;;;;;;5012497;28;20038;-57
2023/09/17 02:40:38;;;;;;;35.80;21.95;;;17.90;99.90;;;;;;5012856;28;20084;-54
2023/09/17 02:43:05;;;;;;;30.25;20.67;;;17.90;99.90;;;;;;5014027;28;20088;-57
2023/09/17 02:45:32;;;;;;;31.55;21.13;;;17.90;99.90;;;;;;5014304;28;20124;-58
2023/09/17 02:47:59;;;;;;;32.72;20.80;;;17.90;99.90;;;;;;5012363;28;20049;-56
2023/09/17 02:50:26;;;;;;;33.40;21.45;;;17.90;99.90;;;;;;5013617;28;20071;-52
2023/09/17 02:52:53;;;;;;;29.88;20.90;;;17.90;99.90;;;;;;5013977;28;20041;-56
2023/09/17 02:55:19;;;;;;;33.15;20.83;;;17.90;99.90;;;;;;5014182;28;20366;-56
2023/09/17 02:57:48;;;;;;;33.67;21.17;;;17.90;99.90;;;;;;5012542;28;20069;-55
2023/09/17 03:00:17;;;;;;;27.92;20.75;;;17.80;99.90;;;;;;5013426;28;20444;-55
2023/09/17 03:02:47;;;;;;;29.75;20.25;;;17.90;99.90;;;;;;5012457;28;20049;-54
2023/09/17 03:05:14;;;;;;;31.88;19.77;;;17.90;99.90;;;;;;5013830;28;20042;-58
2023/09/17 03:07:41;;;;;;;25.95;19.40;;;17.90;99.90;;;;;;5012424;28;20069;-59
2023/09/17 03:10:12;;;;;;;27.75;18.77;;;17.90;99.90;;;;;;5012570;28;20045;-55
2023/09/17 03:12:41;;;;;;;29.10;18.13;;;18.00;99.90;;;;;;5012098;28;20057;-57
2023/09/17 03:15:09;;;;;;;28.50;18.77;;;18.00;99.90;;;;;;5012292;28;20050;-59
2023/09/17 03:17:36;;;;;;;25.25;17.67;;;18.00;99.90;;;;;;5011901;28;20064;-56
2023/09/17 03:20:13;;;;;;;24.83;17.40;;;18.00;99.90;;;;;;5012290;28;20474;-56
2023/09/17 03:22:41;;;;;;;25.30;16.50;;;18.00;99.90;;;;;;5011944;28;20101;-55
2023/09/17 03:25:08;;;;;;;25.33;17.58;;;18.00;99.90;;;;;;5013316;28;20038;-58
2023/09/17 03:27:35;;;;;;;24.38;16.45;;;18.00;99.90;;;;;;5013504;28;20433;-52
2023/09/17 03:30:04;;;;;;;26.27;16.27;;;18.10;99.90;;;;;;5012281;28;20041;-57
2023/09/17 03:32:32;;;;;;;27.65;17.25;;;18.10;99.90;;;;;;5013550;28;20042;-53
2023/09/17 03:35:00;;;;;;;25.23;16.17;;;18.20;99.90;;;;;;5012178;28;20096;-58
2023/09/17 03:37:27;;;;;;;27.40;16.05;;;18.20;99.90;;;;;;5013635;28;20042;-54
2023/09/17 03:39:54;;;;;;;24.38;15.60;;;18.20;99.90;;;;;;4995753;28;20038;-54
2023/09/17 03:42:20;;;;;;;26.58;15.88;;;18.20;99.90;;;;;;5012354;28;20053;-54
2023/09/17 03:44:47;;;;;;;23.23;15.52;;;18.20;99.90;;;;;;5013544;28;20041;-52
2023/09/17 03:47:14;;;;;;;24.05;14.35;;;18.20;99.90;;;;;;5012893;28;20052;-56
2023/09/17 03:49:41;;;;;;;25.55;14.65;;;18.20;99.90;;;;;;5011884;28;20070;-57
2023/09/17 03:52:08;;;;;;;20.80;14.05;;;18.10;99.90;;;;;;5012037;28;20047;-59
2023/09/17 03:54:35;;;;;;;20.58;15.20;;;18.20;99.90;;;;;;5011719;28;20045;-60
2023/09/17 03:57:02;;;;;;;24.08;14.18;;;18.20;99.90;;;;;;5013417;28;20545;-58
2023/09/17 03:59:29;;;;;;;24.20;13.77;;;18.20;99.90;;;;;;5011888;28;20034;-60
2023/09/17 04:01:56;;;;;;;26.20;14.05;;;18.20;99.90;;;;;;5011945;28;20084;-56
2023/09/17 04:04:23;;;;;;;24.55;14.27;;;18.20;99.90;;;;;;5012204;28;20042;-56
2023/09/17 04:06:50;;;;;;;21.63;14.05;;;18.20;99.90;;;;;;5011810;28;20057;-58
2023/09/17 04:09:17;;;;;;;24.15;13.57;;;18.10;99.90;;;;;;5011686;28;20064;-54
2023/09/17 04:11:44;;;;;;;23.45;14.02;;;18.10;99.90;;;;;;5013116;28;20450;-56
2023/09/17 04:14:10;;;;;;;22.52;14.05;;;18.10;99.90;;;;;;5015509;28;20042;-57
2023/09/17 04:16:37;;;;;;;21.40;13.65;;;18.10;99.90;;;;;;5015446;28;20069;-58
2023/09/17 04:19:04;;;;;;;21.83;13.18;;;18.10;99.90;;;;;;5016814;28;20069;-58
2023/09/17 04:21:31;;;;;;;22.85;13.00;;;18.10;99.90;;;;;;5014945;28;20108;-58
2023/09/17 04:23:58;;;;;;;28.65;13.55;;;18.10;99.90;;;;;;5015180;28;20132;-60
2023/09/17 04:26:25;;;;;;;21.13;12.82;;;18.20;99.90;;;;;;5016502;28;20142;-56
2023/09/17 04:28:52;;;;;;;24.05;13.07;;;18.10;99.90;;;;;;5014872;28;20049;-54
2023/09/17 04:31:19;;;;;;;20.38;13.38;;;18.10;99.90;;;;;;5015164;28;20435;-58
2023/09/17 04:33:46;;;;;;;26.48;13.88;;;18.10;99.90;;;;;;5014999;28;20061;-57
2023/09/17 04:36:13;;;;;;;20.75;12.23;;;18.10;99.90;;;;;;5014883;28;20099;-54
2023/09/17 04:38:40;;;;;;;25.38;14.48;;;18.00;99.90;;;;;;5014835;28;20552;-58
2023/09/17 04:41:07;;;;;;;19.30;12.07;;;18.10;99.90;;;;;;5014838;28;20050;-54
2023/09/17 04:43:34;;;;;;;25.05;13.43;;;18.10;99.90;;;;;;5014706;28;20041;-52
2023/09/17 04:46:01;;;;;;;22.05;12.93;;;18.00;99.90;;;;;;5014678;28;20060;-58
2023/09/17 04:48:31;;;;;;;22.63;13.00;;;18.00;99.90;;;;;;5014628;28;20490;-55
2023/09/17 04:50:58;;;;;;;22.08;13.52;;;18.00;99.90;;;;;;5014799;28;20152;-60
2023/09/17 04:53:25;;;;;;;22.70;13.55;;;18.00;99.90;;;;;;5014678;28;20042;-57
2023/09/17 04:55:53;;;;;;;23.15;13.23;;;18.00;99.90;;;;;;5014529;28;20132;-53
2023/09/17 04:58:24;;;;;;;24.80;13.32;;;18.00;99.90;;;;;;5014363;28;20049;-54
2023/09/17 05:00:52;;;;;;;21.77;12.65;;;18.00;99.90;;;;;;5014446;28;20049;-54
2023/09/17 05:03:20;;;;;;;24.35;13.30;;;18.00;99.90;;;;;;5014340;28;20500;-52
2023/09/17 05:05:49;;;;;;;22.10;13.85;;;18.00;99.90;;;;;;5015601;28;20044;-54
2023/09/17 05:08:17;;;;;;;23.42;13.13;;;18.00;99.90;;;;;;5013857;28;20112;-56
2023/09/17 05:10:45;;;;;;;25.63;13.73;;;17.90;99.90;;;;;;5015708;28;20466;-54
2023/09/17 05:13:12;;;;;;;21.20;13.80;;;18.00;99.90;;;;;;5015540;28;20432;-54
2023/09/17 05:15:38;;;;;;;24.38;13.77;;;17.90;99.90;;;;;;5014294;28;20073;-49
2023/09/17 05:18:09;;;;;;;24.63;13.70;;;17.90;99.90;;;;;;5013701;28;20536;-54
2023/09/17 05:20:43;;;;;;;17.40;13.02;;;17.90;99.90;;;;;;5013743;28;20046;-47
2023/09/17 05:23:14;;;;;;;18.73;13.10;;;18.00;99.90;;;;;;5015147;28;20046;-51
2023/09/17 05:25:42;;;;;;;20.27;12.73;;;18.00;99.90;;;;;;5013588;28;20535;-52
2023/09/17 05:28:11;;;;;;;21.55;12.88;;;17.90;99.90;;;;;;5013982;28;20076;-56
2023/09/17 05:30:38;;;;;;;23.60;13.32;;;18.00;99.90;;;;;;5015084;28;20045;-53
2023/09/17 05:33:05;;;;;;;18.75;12.65;;;18.00;99.90;;;;;;5013755;28;20053;-56
2023/09/17 05:35:32;;;;;;;20.90;12.93;;;18.00;99.90;;;;;;5013803;28;20357;-53
2023/09/17 05:37:59;;;;;;;22.98;12.90;;;18.00;99.90;;;;;;5013537;28;20092;-54
2023/09/17 05:40:26;;;;;;;22.63;12.95;;;18.00;99.90;;;;;;4997714;28;20046;-58
2023/09/17 05:42:53;;;;;;;21.25;13.77;;;17.90;99.90;;;;;;5013591;28;20042;-53
2023/09/17 05:45:20;;;;;;;22.98;13.38;;;17.90;99.90;;;;;;5013557;28;20460;-51
2023/09/17 05:47:46;;;;;;;21.58;12.68;;;17.90;99.90;;;;;;5012756;28;20049;-55
2023/09/17 05:50:14;;;;;;;21.00;13.23;;;17.90;99.90;;;;;;5014680;28;20065;-52
2023/09/17 05:52:42;;;;;;;18.70;12.32;;;17.80;99.90;;;;;;5013144;28;20382;-55
2023/09/17 05:55:09;;;;;;;19.13;13.48;;;17.80;99.90;;;;;;5013680;28;20054;-58
2023/09/17 05:57:36;;;;;;;19.77;13.18;;;17.80;99.90;;;;;;5012900;28;20046;-57
2023/09/17 06:00:04;;;;;;;24.52;13.75;;;17.80;99.90;;;;;;5013391;28;20605;-56
2023/09/17 06:02:39;;;;;;;22.23;13.32;;;17.80;99.90;;;;;;5014782;28;20050;-53
2023/09/17 06:05:07;;;;;;;22.13;13.88;;;17.70;99.90;;;;;;5013183;28;20052;-58
2023/09/17 06:07:34;;;;;;;22.00;12.45;;;17.70;99.90;;;;;;5014654;28;20084;-56
2023/09/17 06:10:01;;;;;;;21.17;12.80;;;17.70;99.90;;;;;;5013083;28;20049;-58
2023/09/17 06:12:29;;;;;;;22.73;13.35;;;17.70;99.90;;;;;;5012804;28;20052;-55
2023/09/17 06:14:56;;;;;;;19.25;12.57;;;17.70;99.90;;;;;;5013011;28;20084;-57
2023/09/17 06:17:23;;;;;;;21.90;13.55;;;17.70;99.90;;;;;;5012705;28;20434;-59
2023/09/17 06:19:50;;;;;;;18.73;11.88;;;17.70;99.90;;;;;;5014534;28;20042;-57
2023/09/17 06:22:17;;;;;;;18.95;11.93;;;17.80;99.90;;;;;;5014019;28;20041;-50
2023/09/17 06:24:45;;;;;;;18.52;11.95;;;17.90;99.90;;;;;;5012710;28;20112;-57
2023/09/17 06:27:11;;;;;;;18.08;12.10;;;18.00;99.90;;;;;;5012493;28;20464;-52
2023/09/17 06:29:38;;;;;;;16.20;11.55;;;18.00;99.90;;;;;;5014681;28;20108;-57
2023/09/17 06:32:06;;;;;;;19.13;11.75;;;18.00;99.90;;;;;;5013244;28;20421;-59
2023/09/17 06:34:33;;;;;;;21.50;11.80;;;18.00;99.90;;;;;;5012189;28;20405;-61
2023/09/17 06:37:01;;;;;;;16.10;12.00;;;18.00;99.90;;;;;;5012540;28;20048;-54
2023/09/17 06:39:28;;;;;;;13.55;11.40;;;18.00;99.90;;;;;;5012791;28;20073;-54
2023/09/17 06:41:54;;;;;;;17.40;11.40;;;18.10;99.90;;;;;;5013211;28;20055;-57
2023/09/17 06:44:23;;;;;;;19.38;11.20;;;18.00;99.90;;;;;;5014051;28;20045;-55
2023/09/17 06:46:50;;;;;;;19.23;11.52;;;18.10;99.90;;;;;;5013665;28;20547;-54
2023/09/17 06:49:18;;;;;;;19.58;11.57;;;18.10;99.90;;;;;;5013864;28;20493;-53
2023/09/17 06:51:45;;;;;;;25.02;12.10;;;18.00;99.90;;;;;;5013113;28;20486;-54
2023/09/17 06:54:12;;;;;;;22.33;11.57;;;18.00;99.90;;;;;;5013778;28;20088;-58
2023/09/17 06:56:38;;;;;;;18.80;11.57;;;18.10;99.90;;;;;;5013762;28;20419;-53
2023/09/17 06:59:05;;;;;;;18.27;11.25;;;18.10;99.90;;;;;;5013864;28;20049;-56
2023/09/17 07:01:32;;;;;;;18.48;11.07;;;18.10;99.90;;;;;;5014997;28;20044;-58
2023/09/17 07:04:17;;;;;;;16.83;11.63;;;18.20;99.90;;;;;;5031336;28;20053;-55
2023/09/17 07:06:44;;;;;;;16.98;10.50;;;18.20;99.90;;;;;;5031519;28;20049;-53
2023/09/17 07:09:11;;;;;;;16.70;9.77;;;18.30;99.90;;;;;;5031098;28;20056;-55
2023/09/17 07:11:38;;;;;;;20.90;11.27;;;18.30;99.90;;;;;;5031517;28;20053;-54
2023/09/17 07:14:09;;;;;;;13.88;10.50;;;18.40;99.90;;;;;;5031437;28;20045;-59
2023/09/17 07:16:37;;;;;;;16.95;10.43;;;18.40;99.90;;;;;;5031476;28;20124;-59
2023/09/17 07:19:04;;;;;;;18.42;10.63;;;18.50;99.90;;;;;;5031234;28;20049;-55
2023/09/17 07:21:31;;;;;;;18.35;10.35;;;18.60;99.90;;;;;;5031165;28;20041;-57
2023/09/17 07:23:58;;;;;;;15.90;10.57;;;18.70;99.90;;;;;;5031393;28;20041;-57
2023/09/17 07:26:25;;;;;;;19.05;11.40;;;18.80;99.90;;;;;;5030986;28;20046;-57
2023/09/17 07:28:52;;;;;;;15.77;10.75;;;18.80;99.90;;;;;;5030915;28;20559;-58
2023/09/17 07:31:19;;;;;;;16.75;11.20;;;18.80;99.90;;;;;;5014300;28;20488;-56
2023/09/17 07:33:46;;;;;;;16.70;11.35;;;18.80;99.90;;;;;;5031006;28;20050;-59
2023/09/17 07:36:14;;;;;;;15.13;10.77;;;18.80;99.90;;;;;;5031384;28;20135;-57
2023/09/17 07:38:41;;;;;;;17.67;10.23;;;18.90;99.90;;;;;;5030872;28;20042;-54
2023/09/17 07:41:08;;;;;;;21.83;10.77;;;19.00;99.90;;;;;;5030744;28;20136;-58
2023/09/17 07:43:35;;;;;;;16.83;9.25;;;19.10;99.90;;;;;;5014454;28;20037;-59
2023/09/17 07:46:02;;;;;;;17.17;9.65;;;19.10;99.90;;;;;;5030750;28;20061;-56
2023/09/17 07:48:29;;;;;;;17.08;9.90;;;19.20;99.90;;;;;;5033044;28;20475;-52
2023/09/17 07:50:56;;;;;;;14.45;9.75;;;19.30;99.90;;;;;;5034940;28;20041;-57
2023/09/17 07:53:24;;;;;;;15.55;8.77;;;19.30;99.90;;;;;;5033506;28;20045;-57
2023/09/17 07:55:51;;;;;;;14.27;9.07;;;19.40;99.90;;;;;;5017156;28;20061;-56
2023/09/17 07:58:18;;;;;;;15.32;9.70;;;19.50;99.90;;;;;;5017190;28;20432;-55
2023/09/17 08:00:45;;;;;;;18.85;9.82;;;19.40;99.90;;;;;;5017176;28;20041;-56
2023/09/17 08:03:12;;;;;;;16.83;9.68;;;19.40;99.90;;;;;;5017068;28;20461;-56
2023/09/17 08:05:39;;;;;;;20.15;9.75;;;19.50;99.90;;;;;;5017025;28;20058;-57
2023/09/17 08:08:07;;;;;;;18.85;10.10;;;19.50;99.90;;;;;;5016487;28;20050;-53
2023/09/17 08:10:34;;;;;;;18.10;9.38;;;19.60;99.90;;;;;;5016271;28;20038;-54
2023/09/17 08:13:01;;;;;;;18.02;8.75;;;19.60;99.90;;;;;;5016253;28;20464;-57
2023/09/17 08:15:29;;;;;;;12.23;8.10;;;19.70;99.90;;;;;;5015976;28;20117;-55
2023/09/17 08:17:56;;;;;;;14.20;8.77;;;19.80;99.90;;;;;;5014550;28;20038;-53
2023/09/17 08:20:23;;;;;;;14.85;8.50;;;19.80;99.90;;;;;;5016391;28;20160;-56
2023/09/17 08:22:51;;;;;;;14.00;8.43;;;19.80;99.90;;;;;;5031474;28;20041;-60
2023/09/17 08:25:18;;;;;;;16.52;8.50;;;19.90;99.90;;;;;;5035951;28;20404;-61
2023/09/17 08:27:45;;;;;;;11.07;6.93;;;19.90;99.90;;;;;;5036011;28;20041;-60
2023/09/17 08:30:12;;;;;;;14.45;7.35;;;20.00;99.90;;;;;;5035633;28;20058;-57
2023/09/17 08:32:39;;;;;;;11.93;6.32;;;20.10;99.90;;;;;;5035646;28;20108;-58
2023/09/17 08:35:07;;;;;;;10.18;6.07;;;20.20;99.90;;;;;;5036196;28;20045;-56
2023/09/17 08:37:34;;;;;;;12.30;6.07;;;20.30;99.90;;;;;;5035964;28;20042;-57
2023/09/17 08:40:05;;;;;;;10.73;5.57;;;20.40;99.90;;;;;;5036134;28;20057;-57
2023/09/17 08:42:31;;;;;;;14.30;6.25;;;20.50;99.90;;;;;;5035881;28;20041;-58
2023/09/17 08:44:58;;;;;;;11.07;5.00;;;20.50;99.90;;;;;;5035830;28;20038;-58
2023/09/17 08:47:25;;;;;;;9.48;3.70;;;20.60;99.90;;;;;;5035276;28;20045;-53
2023/09/17 08:49:52;;;;;;;8.98;3.88;;;20.60;99.90;;;;;;5035762;28;20077;-56
2023/09/17 08:52:19;;;;;;;5.97;3.40;;;20.60;99.90;;;;;;5035587;28;20041;-55
2023/09/17 08:54:46;;;;;;;7.43;3.58;;;20.60;99.90;;;;;;5034884;28;20175;-55
2023/09/17 08:57:13;;;;;;;7.85;3.65;;;20.60;99.90;;;;;;5035535;28;20083;-58
2023/09/17 08:59:40;;;;;;;7.50;3.40;;;20.60;99.90;;;;;;5034945;28;20037;-57
2023/09/17 09:02:07;;;;;;;7.63;3.72;;;20.60;99.90;;;;;;5035733;28;20037;-59
2023/09/17 09:04:34;;;;;;;10.60;3.20;;;20.70;99.90;;;;;;5035289;28;20099;-57
2023/09/17 09:07:01;;;;;;;8.27;3.53;;;20.60;99.90;;;;;;5035317;28;20230;-52
2023/09/17 09:09:28;;;;;;;7.07;3.17;;;20.60;99.90;;;;;;5035597;28;20496;-56
2023/09/17 09:11:55;;;;;;;7.78;3.03;;;20.60;99.90;;;;;;5035433;28;20122;-59
2023/09/17 09:14:22;;;;;;;5.97;2.92;;;20.60;99.90;;;;;;5035407;28;20095;-56
2023/09/17 09:16:49;;;;;;;11.38;3.35;;;20.60;99.90;;;;;;5034383;28;20073;-57
2023/09/17 09:19:16;;;;;;;11.93;3.30;;;20.60;99.90;;;;;;5034891;28;20437;-58
2023/09/17 09:21:43;;;;;;;6.93;3.42;;;20.50;99.90;;;;;;5034981;28;20044;-58
2023/09/17 09:24:10;;;;;;;5.38;3.00;;;20.50;99.90;;;;;;5035039;28;20064;-56
2023/09/17 09:26:37;;;;;;;3.75;2.78;;;20.40;99.90;;;;;;5034351;28;20037;-58
2023/09/17 09:29:04;;;;;;;4.85;3.00;;;20.40;99.90;;;;;;5034170;28;20048;-53
2023/09/17 09:31:31;;;;;;;9.85;3.70;;;20.40;99.90;;;;;;5034879;28;20052;-55
2023/09/17 09:33:59;;;;;;;7.75;3.42;;;20.40;99.90;;;;;;5033349;28;20389;-58
2023/09/17 09:36:27;;;;;;;6.65;3.28;;;20.50;99.90;;;;;;5033870;28;20041;-56
2023/09/17 09:38:54;;;;;;;4.70;3.28;;;20.60;99.90;;;;;;5034063;28;20129;-54
2023/09/17 09:41:21;;;;;;;7.50;3.35;;;20.70;99.90;;;;;;5033494;28;20042;-54
2023/09/17 09:43:48;;;;;;;5.25;2.90;;;20.80;99.90;;;;;;5034263;28;20112;-52
2023/09/17 09:46:15;;;;;;;6.95;3.28;;;20.80;99.90;;;;;;5032898;28;20044;-55
2023/09/17 09:48:43;;;;;;;7.32;3.35;;;20.90;99.90;;;;;;5033592;28;20053;-50
2023/09/17 09:51:10;;;;;;;7.18;3.55;;;20.80;99.90;;;;;;5033956;28;20041;-56
2023/09/17 09:53:37;;;;;;;6.18;3.50;;;20.90;99.90;;;;;;5034627;28;20771;-59
2023/09/17 09:56:04;;;;;;;8.50;3.95;;;20.90;99.90;;;;;;5034157;28;20072;-59
2023/09/17 09:58:31;;;;;;;7.55;4.68;;;21.10;99.90;;;;;;5027403;28;20501;-56
2023/09/17 10:00:59;;;;;;;5.75;3.83;;;21.20;99.90;;;;;;5027237;28;20096;-49
2023/09/17 10:03:27;;;;;;;5.85;3.63;;;21.30;99.90;;;;;;5027241;28;20037;-57
2023/09/17 10:05:54;;;;;;;6.10;3.78;;;21.40;99.90;;;;;;5027652;28;20065;-57
2023/09/17 10:08:21;;;;;;;7.78;4.13;;;21.40;99.90;;;;;;5033260;28;20045;-59
2023/09/17 10:10:48;;;;;;;9.38;4.20;;;21.30;99.90;;;;;;5026421;28;20073;-57
2023/09/17 10:13:15;;;;;;;9.57;4.47;;;21.40;99.90;;;;;;5026954;28;20057;-52
2023/09/17 10:15:45;;;;;;;5.85;4.22;;;21.30;99.90;;;;;;5027458;28;20404;-51
2023/09/17 10:18:14;;;;;;;7.50;4.20;;;21.40;99.90;;;;;;5033606;28;20052;-56
2023/09/17 10:20:44;;;;;;;7.90;5.03;;;21.50;99.90;;;;;;5033277;28;20131;-57
2023/09/17 10:23:11;;;;;;;7.20;4.53;;;21.50;99.90;;;;;;5032010;28;20048;-57
2023/09/17 10:25:38;;;;;;;8.93;4.55;;;21.60;99.90;;;;;;5033144;28;20057;-54
2023/09/17 10:28:05;;;;;;;8.23;4.60;;;21.70;99.90;;;;;;5032651;28;20069;-58
2023/09/17 10:30:32;;;;;;;9.45;4.43;;;21.80;99.90;;;;;;5033496;28;20052;-58
2023/09/17 10:32:59;;;;;;;9.20;4.55;;;21.70;99.90;;;;;;5033251;28;20042;-56
2023/09/17 10:35:26;;;;;;;7.75;4.50;;;21.70;99.90;;;;;;5033029;28;20117;-54
2023/09/17 10:37:53;;;;;;;6.82;4.45;;;21.70;99.90;;;;;;5033058;28;20052;-54
2023/09/17 10:40:20;;;;;;;8.43;4.50;;;21.70;99.90;;;;;;5033209;28;20401;-54
2023/09/17 10:42:47;;;;;;;7.40;4.50;;;21.70;99.90;;;;;;5033133;28;20104;-55
2023/09/17 10:45:14;;;;;;;8.27;4.90;;;21.80;99.90;;;;;;5031949;28;20500;-58
2023/09/17 10:47:41;;;;;;;11.77;4.82;;;21.90;99.90;;;;;;5032563;28;20113;-56
2023/09/17 10:50:12;;;;;;;10.77;5.38;;;21.90;99.90;;;;;;5026875;28;20037;-60
2023/09/17 10:52:39;;;;;;;9.27;4.85;;;21.80;99.90;;;;;;5027127;28;20072;-61
2023/09/17 10:55:08;;;;;;;8.63;5.57;;;21.80;99.90;;;;;;5014769;28;20432;-54
2023/09/17 10:57:35;;;;;;;9.93;5.80;;;21.80;99.90;;;;;;5031635;28;20043;-57
2023/09/17 11:00:04;;;;;;;9.57;6.15;;;21.80;99.90;;;;;;5032311;28;20043;-58
2023/09/17 11:02:31;;;;;;;8.55;5.93;;;21.80;99.90;;;;;;5032126;28;20361;-55
2023/09/17 11:04:58;;;;;;;11.48;6.25;;;21.80;99.90;;;;;;5033208;28;20091;-58
2023/09/17 11:07:26;;;;;;;9.75;5.65;;;21.70;99.90;;;;;;5032762;28;20113;-52
2023/09/17 11:09:53;;;;;;;12.25;6.57;;;21.60;99.90;;;;;;5033006;28;20525;-61
2023/09/17 11:12:23;;;;;;;13.20;5.70;;;21.50;99.90;;;;;;5027134;28;20061;-57
2023/09/17 11:14:50;;;;;;;10.25;5.60;;;21.50;99.90;;;;;;5030303;28;20045;-55
2023/09/17 11:17:17;;;;;;;8.95;5.88;;;21.50;99.90;;;;;;5027691;28;20053;-59
2023/09/17 11:19:44;;;;;;;8.35;5.95;;;21.40;99.90;;;;;;5027121;28;20116;-53
2023/09/17 11:22:11;;;;;;;14.02;6.30;;;21.40;99.90;;;;;;5034680;28;20033;-59
2023/09/17 11:24:39;;;;;;;8.77;5.82;;;21.40;99.90;;;;;;5033989;28;20793;-60
2023/09/17 11:27:08;;;;;;;11.10;5.60;;;21.50;99.90;;;;;;5036019;28;20492;-63
2023/09/17 11:29:35;;;;;;;10.40;5.50;;;21.50;99.90;;;;;;5032611;28;20484;-56
2023/09/17 11:32:03;;;;;;;8.05;5.63;;;21.50;99.90;;;;;;5036001;28;20116;-53
2023/09/17 11:34:30;;;;;;;10.02;5.82;;;21.50;99.90;;;;;;5033350;28;20041;-57
2023/09/17 11:36:57;;;;;;;9.63;5.85;;;21.50;99.90;;;;;;5035035;28;20073;-53
2023/09/17 11:39:24;;;;;;;9.93;5.60;;;21.50;99.90;;;;;;5036227;28;20036;-52
2023/09/17 11:41:54;;;;;;;13.60;6.00;;;21.50;99.90;;;;;;5035992;28;20088;-52
2023/09/17 11:44:21;;;;;;;9.63;5.38;;;21.40;99.90;;;;;;5035562;28;20061;-56
2023/09/17 11:46:48;;;;;;;10.95;5.45;;;21.40;99.90;;;;;;5020127;28;20038;-59
2023/09/17 11:49:18;;;;;;;11.75;6.15;;;21.40;99.90;;;;;;5035810;28;20168;-59
2023/09/17 11:51:45;;;;;;;10.13;6.30;;;21.30;99.90;;;;;;5031279;28;20045;-56
2023/09/17 11:54:15;;;;;;;14.93;6.90;;;21.30;99.90;;;;;;5027129;28;20104;-56
2023/09/17 11:56:43;;;;;;;13.57;7.00;;;21.30;99.90;;;;;;5028296;28;20056;-54
2023/09/17 11:59:11;;;;;;;13.50;6.72;;;21.20;99.90;;;;;;5031031;28;20037;-61
2023/09/17 12:01:38;;;;;;;9.52;6.10;;;21.10;99.90;;;;;;5035825;28;20040;-57
2023/09/17 12:04:05;;;;;;;10.57;6.18;;;21.00;99.90;;;;;;5035844;28;20338;-57
2023/09/17 12:06:32;;;;;;;10.32;6.82;;;21.00;99.90;;;;;;5035064;28;20091;-57
2023/09/17 12:09:05;;;;;;;10.13;6.88;;;21.00;99.90;;;;;;5033617;28;20555;-54
2023/09/17 12:11:32;;;;;;;15.32;7.63;;;20.90;99.90;;;;;;5032248;28;20416;-55
2023/09/17 12:13:59;;;;;;;19.05;10.45;;;20.80;99.90;;;;;;5036065;28;20118;-52
2023/09/17 12:16:26;;;;;;;15.15;9.35;;;20.70;99.90;;;;;;5017428;28;20054;-59
2023/09/17 12:18:53;;;;;;;14.85;9.80;;;20.60;99.90;;;;;;5027639;28;20445;-52
2023/09/17 12:21:37;;;;;;;12.98;9.70;;;20.40;99.90;;;;;;5032886;28;20045;-54
2023/09/17 12:24:08;;;;;;;13.98;10.02;;;20.10;99.90;;;;;;5035708;28;20069;-55
2023/09/17 12:26:45;;;;;;;14.85;10.13;;;20.00;99.90;;;;;;5035403;28;20171;-59
2023/09/17 12:29:13;;;;;;;14.00;9.95;;;19.80;99.90;;;;;;5041045;28;20037;-52
2023/09/17 12:31:40;;;;;;;14.27;9.85;;;19.70;99.90;;;;;;5032507;28;20469;-51
2023/09/17 12:34:07;;;;;;;16.58;10.57;;;19.60;99.90;;;;;;5027642;28;20042;-54